Time;durP1;ratioP1;P1;durP2;ratioP2;P2;SDS_P1;SDS_P2;PMS_P1;PMS_P2;Temp;Humidity;BMP_temperature;BMP_pressure;BME280_temperature;BME280_humidity;BME280_pressure;Samples;Min_cycle;Max_cycle;Signal;HPM_P1;HPM_P2
2024/03/28 00:00:58;;;;;;;2.15;1.40;;;5.00;99.90;;;;;;5031804;28;20033;-68
2024/03/28 00:03:25;;;;;;;1.92;1.67;;;5.00;99.90;;;;;;5032724;28;20830;-68
2024/03/28 00:05:58;;;;;;;2.63;1.80;;;4.90;99.90;;;;;;5030078;28;20057;-68
2024/03/28 00:08:25;;;;;;;3.17;1.70;;;4.90;99.90;;;;;;5024644;28;20028;-68
2024/03/28 00:10:52;;;;;;;2.80;1.60;;;4.80;99.90;;;;;;5031124;28;20100;-68
2024/03/28 00:13:18;;;;;;;3.90;1.90;;;4.70;99.90;;;;;;5032189;28;20088;-68
2024/03/28 00:15:44;;;;;;;3.40;1.73;;;4.70;99.90;;;;;;5030791;28;20474;-68
2024/03/28 00:18:10;;;;;;;2.20;1.77;;;4.60;99.90;;;;;;5032624;28;20040;-68
2024/03/28 00:20:36;;;;;;;1.42;1.33;;;4.50;99.90;;;;;;5032010;28;20521;-68
2024/03/28 00:23:02;;;;;;;2.97;1.65;;;4.40;99.90;;;;;;5032066;28;20645;-68
2024/03/28 00:25:30;;;;;;;2.67;1.98;;;4.30;99.90;;;;;;5032457;28;20386;-68
2024/03/28 00:28:02;;;;;;;2.45;1.90;;;4.30;99.90;;;;;;5031123;28;20040;-68
2024/03/28 00:30:28;;;;;;;4.03;1.83;;;4.30;99.90;;;;;;5032290;28;20425;-68
2024/03/28 00:32:53;;;;;;;2.58;2.08;;;4.30;99.90;;;;;;5031017;28;20029;-69
2024/03/28 00:35:19;;;;;;;3.60;1.80;;;4.20;99.90;;;;;;5032709;28;20477;-69
2024/03/28 00:37:44;;;;;;;2.55;1.65;;;4.10;99.90;;;;;;5031015;28;20028;-68
2024/03/28 00:40:12;;;;;;;3.83;2.00;;;4.00;99.90;;;;;;5031458;28;20141;-68
2024/03/28 00:42:38;;;;;;;2.47;2.10;;;4.00;99.90;;;;;;5031245;28;20055;-68
2024/03/28 00:45:04;;;;;;;2.28;1.80;;;3.90;99.90;;;;;;5032054;28;20029;-69
2024/03/28 00:47:29;;;;;;;2.65;1.70;;;3.80;99.90;;;;;;5027031;28;20489;-68
2024/03/28 00:49:55;;;;;;;2.63;1.90;;;3.80;99.90;;;;;;5035973;28;20187;-68
2024/03/28 00:52:25;;;;;;;2.88;1.88;;;3.70;99.90;;;;;;5035270;28;20025;-68
2024/03/28 00:54:51;;;;;;;3.53;2.33;;;3.60;99.90;;;;;;5030960;28;20026;-68
2024/03/28 00:57:16;;;;;;;2.92;2.03;;;3.60;99.90;;;;;;5025494;28;20541;-68
2024/03/28 00:59:42;;;;;;;2.15;1.95;;;3.50;99.90;;;;;;5023856;28;20027;-68
2024/03/28 01:02:08;;;;;;;2.95;2.25;;;3.50;99.90;;;;;;5027173;28;20025;-68
2024/03/28 01:04:33;;;;;;;2.22;1.90;;;3.50;99.90;;;;;;5025581;28;20474;-68
2024/03/28 01:06:59;;;;;;;2.03;1.92;;;3.40;99.90;;;;;;5031662;28;20032;-68
2024/03/28 01:09:25;;;;;;;2.40;1.85;;;3.40;99.90;;;;;;5031657;28;20027;-68
2024/03/28 01:11:50;;;;;;;1.92;1.52;;;3.40;99.90;;;;;;5030430;28;20030;-68
2024/03/28 01:14:16;;;;;;;2.30;1.70;;;3.40;99.90;;;;;;5022661;28;20406;-68
2024/03/28 01:16:41;;;;;;;2.25;1.55;;;3.40;99.90;;;;;;5030114;28;20033;-68
2024/03/28 01:19:07;;;;;;;3.95;1.75;;;3.40;99.90;;;;;;5031370;28;20086;-68
2024/03/28 01:21:32;;;;;;;2.33;1.48;;;3.40;99.90;;;;;;5025560;28;20467;-68
2024/03/28 01:23:58;;;;;;;3.40;1.77;;;3.40;99.90;;;;;;5030854;28;20052;-68
2024/03/28 01:26:23;;;;;;;1.83;1.40;;;3.40;99.90;;;;;;5030991;28;20037;-68
2024/03/28 01:28:49;;;;;;;2.95;1.50;;;3.40;99.90;;;;;;5029885;28;20052;-68
2024/03/28 01:31:15;;;;;;;3.65;1.45;;;3.50;99.90;;;;;;5024932;28;20025;-68
2024/03/28 01:33:40;;;;;;;2.67;1.42;;;3.50;99.90;;;;;;5027046;28;20029;-68
2024/03/28 01:36:06;;;;;;;1.73;1.52;;;3.60;99.90;;;;;;5030880;28;20033;-68
2024/03/28 01:38:31;;;;;;;1.77;1.55;;;3.60;99.90;;;;;;5030951;28;20037;-68
2024/03/28 01:40:57;;;;;;;3.72;1.52;;;3.60;99.90;;;;;;5029782;28;20028;-68
2024/03/28 01:43:23;;;;;;;3.60;1.80;;;3.60;99.90;;;;;;5031218;28;20482;-68
2024/03/28 01:45:49;;;;;;;2.05;1.58;;;3.60;99.90;;;;;;5025892;28;20041;-68
2024/03/28 01:48:15;;;;;;;1.73;1.63;;;3.60;99.90;;;;;;5024472;28;20027;-68
2024/03/28 01:50:41;;;;;;;2.72;1.60;;;3.60;99.90;;;;;;5029398;28;20402;-67
2024/03/28 01:53:08;;;;;;;2.17;1.40;;;3.60;99.90;;;;;;5027804;28;20029;-68
2024/03/28 01:55:34;;;;;;;2.50;1.40;;;3.70;99.90;;;;;;5019651;28;20033;-68
2024/03/28 01:58:00;;;;;;;1.20;1.10;;;3.60;99.90;;;;;;5026183;28;20108;-68
2024/03/28 02:00:27;;;;;;;4.30;1.70;;;3.70;99.90;;;;;;5027139;28;20022;-68
2024/03/28 02:02:53;;;;;;;2.22;1.38;;;3.70;99.90;;;;;;5029203;28;20246;-68
2024/03/28 02:05:19;;;;;;;1.60;1.48;;;3.60;99.90;;;;;;5029118;28;20459;-68
2024/03/28 02:07:45;;;;;;;1.92;1.30;;;3.50;99.90;;;;;;5029451;28;20021;-68
2024/03/28 02:10:10;;;;;;;3.25;1.60;;;3.50;99.90;;;;;;5030534;28;20037;-68
2024/03/28 02:12:37;;;;;;;1.67;1.40;;;3.40;99.90;;;;;;5029697;28;20505;-68
2024/03/28 02:15:03;;;;;;;1.63;1.42;;;3.40;99.90;;;;;;5030242;28;20447;-68
2024/03/28 02:17:28;;;;;;;1.30;1.20;;;3.30;99.90;;;;;;5030047;28;20104;-68
2024/03/28 02:19:54;;;;;;;1.55;1.42;;;3.30;99.90;;;;;;5029924;28;20177;-68
2024/03/28 02:22:20;;;;;;;2.95;1.27;;;3.30;99.90;;;;;;5027341;28;20064;-68
2024/03/28 02:24:48;;;;;;;2.58;1.48;;;3.20;99.90;;;;;;5029794;28;20479;-68
2024/03/28 02:27:13;;;;;;;1.70;1.40;;;3.10;99.90;;;;;;5028340;28;20112;-69
2024/03/28 02:29:39;;;;;;;4.20;1.80;;;3.10;99.90;;;;;;5029584;28;20108;-69
2024/03/28 02:32:04;;;;;;;2.05;1.70;;;3.10;99.90;;;;;;5028811;28;20021;-68
2024/03/28 02:34:30;;;;;;;2.58;1.45;;;3.10;99.90;;;;;;5030840;28;20102;-68
2024/03/28 02:36:56;;;;;;;1.60;1.50;;;3.10;99.90;;;;;;5028911;28;20025;-68
2024/03/28 02:39:21;;;;;;;2.75;1.30;;;3.00;99.90;;;;;;5030138;28;20034;-67
2024/03/28 02:41:47;;;;;;;2.35;1.70;;;3.00;99.90;;;;;;5029335;28;20362;-66
2024/03/28 02:44:12;;;;;;;2.97;2.00;;;3.00;99.90;;;;;;5030531;28;20116;-68
2024/03/28 02:46:38;;;;;;;2.65;1.90;;;2.90;99.90;;;;;;5028773;28;20386;-68
2024/03/28 02:49:03;;;;;;;2.40;1.90;;;2.70;99.90;;;;;;5017089;28;20171;-68
2024/03/28 02:51:29;;;;;;;4.20;1.92;;;2.90;99.90;;;;;;5030132;28;20034;-68
2024/03/28 02:53:54;;;;;;;3.08;1.88;;;2.80;99.90;;;;;;5029418;28;20029;-68
2024/03/28 02:56:20;;;;;;;2.22;1.90;;;2.70;99.90;;;;;;5026710;28;20502;-68
2024/03/28 02:58:45;;;;;;;3.15;1.90;;;2.60;99.90;;;;;;5030012;28;20052;-69
2024/03/28 03:01:11;;;;;;;2.00;1.80;;;2.50;99.90;;;;;;5033762;28;20025;-68
2024/03/28 03:03:36;;;;;;;4.53;1.70;;;2.40;99.90;;;;;;5033137;28;20083;-68
2024/03/28 03:06:02;;;;;;;2.90;2.10;;;2.40;99.90;;;;;;5032051;28;20069;-69
2024/03/28 03:08:28;;;;;;;3.15;1.80;;;2.50;99.90;;;;;;5034225;28;20087;-69
2024/03/28 03:10:53;;;;;;;5.53;2.08;;;2.50;99.90;;;;;;5032714;28;20028;-68
2024/03/28 03:13:19;;;;;;;2.50;1.92;;;2.60;99.90;;;;;;5032822;28;20034;-68
2024/03/28 03:15:52;;;;;;;2.90;1.92;;;2.60;99.90;;;;;;5032778;28;20471;-68
2024/03/28 03:18:25;;;;;;;3.58;1.60;;;2.50;99.90;;;;;;5025299;28;20069;-68
2024/03/28 03:21:02;;;;;;;5.20;2.17;;;2.40;99.90;;;;;;5032084;28;20449;-68
2024/03/28 03:23:35;;;;;;;4.00;2.28;;;2.40;99.90;;;;;;5034161;28;20025;-68
2024/03/28 03:26:11;;;;;;;3.78;2.58;;;2.50;99.90;;;;;;5032900;28;20037;-68
2024/03/28 03:36:52;;;;;;;2.83;2.00;;;2.80;99.90;;;;;;5031623;28;20610;-68
2024/03/28 03:39:18;;;;;;;2.53;2.05;;;2.80;99.90;;;;;;5033855;28;20021;-68
2024/03/28 03:41:44;;;;;;;5.00;2.22;;;2.70;99.90;;;;;;5032335;28;20033;-68
2024/03/28 03:44:10;;;;;;;2.03;1.80;;;2.60;99.90;;;;;;5033845;28;20118;-68
2024/03/28 03:46:36;;;;;;;2.45;1.92;;;2.50;99.90;;;;;;5030413;28;20105;-68
2024/03/28 03:49:01;;;;;;;3.65;2.42;;;2.50;99.90;;;;;;5033672;28;20048;-69
2024/03/28 03:51:28;;;;;;;3.60;2.67;;;2.50;99.90;;;;;;5032705;28;20030;-68
2024/03/28 03:53:53;;;;;;;4.78;2.42;;;2.40;99.90;;;;;;5032419;28;20626;-68
2024/03/28 03:56:19;;;;;;;5.20;3.05;;;2.30;99.90;;;;;;5032683;28;20064;-68
2024/03/28 03:58:44;;;;;;;4.50;3.00;;;2.30;99.90;;;;;;5032426;28;20107;-68
2024/03/28 04:01:10;;;;;;;4.47;2.85;;;2.20;99.90;;;;;;5032888;28;20029;-68
2024/03/28 04:03:35;;;;;;;3.72;2.53;;;2.10;99.90;;;;;;5028019;28;20462;-68
2024/03/28 04:06:02;;;;;;;4.15;2.88;;;2.10;99.90;;;;;;5029662;28;20173;-68
2024/03/28 04:08:29;;;;;;;3.92;2.83;;;2.00;99.90;;;;;;5032844;28;20474;-68
2024/03/28 04:10:55;;;;;;;6.95;3.47;;;2.00;99.90;;;;;;5018828;28;20017;-68
2024/03/28 04:13:21;;;;;;;5.82;3.45;;;1.90;99.90;;;;;;5032672;28;20075;-68
2024/03/28 04:15:47;;;;;;;3.00;2.60;;;1.90;99.90;;;;;;5031144;28;20045;-69
2024/03/28 04:18:13;;;;;;;3.13;2.50;;;2.00;99.90;;;;;;5032962;28;20021;-68
2024/03/28 04:20:39;;;;;;;3.85;3.05;;;1.90;99.90;;;;;;5030235;28;20423;-69
2024/03/28 04:23:05;;;;;;;6.72;4.80;;;1.80;99.90;;;;;;5032139;28;20044;-69
2024/03/28 04:25:32;;;;;;;7.20;3.90;;;1.80;99.90;;;;;;5025612;28;20467;-69
2024/03/28 04:27:58;;;;;;;4.00;3.47;;;1.90;99.90;;;;;;5031649;28;20031;-68
2024/03/28 04:30:33;;;;;;;5.25;3.75;;;2.10;99.90;;;;;;5033146;28;20025;-69
2024/03/28 04:32:59;;;;;;;5.93;3.80;;;2.10;99.90;;;;;;5023435;28;20095;-68
2024/03/28 04:35:25;;;;;;;5.07;4.07;;;2.20;99.90;;;;;;5022450;28;20073;-68
2024/03/28 04:37:52;;;;;;;5.47;4.38;;;2.30;99.90;;;;;;5027858;28;20552;-68
2024/03/28 04:40:18;;;;;;;5.15;3.70;;;2.30;99.90;;;;;;5030504;28;20118;-69
2024/03/28 04:42:50;;;;;;;5.70;4.85;;;2.20;99.90;;;;;;5029600;28;20034;-68
2024/03/28 04:45:20;;;;;;;6.72;4.53;;;2.30;99.90;;;;;;5030780;28;20119;-68
2024/03/28 04:47:52;;;;;;;7.05;4.57;;;2.10;99.90;;;;;;5031070;28;20025;-69
2024/03/28 04:50:19;;;;;;;9.07;5.38;;;2.00;99.90;;;;;;5033620;28;20033;-70
2024/03/28 04:52:45;;;;;;;12.38;6.65;;;1.90;99.90;;;;;;5030382;28;20029;-68
2024/03/28 04:55:11;;;;;;;6.65;4.72;;;1.80;99.90;;;;;;5030807;28;20032;-68
2024/03/28 04:57:38;;;;;;;8.23;5.72;;;1.70;99.90;;;;;;5030937;28;20151;-69
2024/03/28 05:00:06;;;;;;;7.45;4.78;;;1.60;99.90;;;;;;5031820;28;20482;-69
2024/03/28 05:02:33;;;;;;;7.90;5.13;;;1.60;99.90;;;;;;5031326;28;20026;-69
2024/03/28 05:04:58;;;;;;;8.60;5.50;;;1.50;99.90;;;;;;5030504;28;20184;-67
2024/03/28 05:07:24;;;;;;;7.22;5.20;;;1.40;99.90;;;;;;5019886;28;20503;-68
2024/03/28 05:09:50;;;;;;;8.43;5.97;;;1.30;99.90;;;;;;5030650;28;20037;-67
2024/03/28 05:12:16;;;;;;;8.00;5.43;;;1.40;99.90;;;;;;5022629;28;20032;-68
2024/03/28 05:14:41;;;;;;;9.27;6.53;;;1.30;99.90;;;;;;5029319;28;20308;-67
2024/03/28 05:17:08;;;;;;;11.15;6.93;;;1.30;99.90;;;;;;5023608;28;20165;-67
2024/03/28 05:19:34;;;;;;;9.32;6.75;;;1.20;99.90;;;;;;5023660;28;20418;-67
2024/03/28 05:22:00;;;;;;;10.43;6.85;;;1.20;99.90;;;;;;5015779;28;20085;-67
2024/03/28 05:24:26;;;;;;;9.07;6.03;;;1.20;99.90;;;;;;5031536;28;20033;-67
2024/03/28 05:26:51;;;;;;;15.05;8.10;;;1.20;99.90;;;;;;5026150;28;20364;-68
2024/03/28 05:29:17;;;;;;;14.68;8.13;;;1.20;99.90;;;;;;5030041;28;20036;-67
2024/03/28 05:31:42;;;;;;;12.10;8.00;;;1.20;99.90;;;;;;5030113;28;20029;-67
2024/03/28 05:34:08;;;;;;;10.48;6.80;;;1.30;99.90;;;;;;5031131;28;20509;-68
2024/03/28 05:36:36;;;;;;;10.30;5.70;;;1.30;99.90;;;;;;5030029;28;20026;-67
2024/03/28 05:39:04;;;;;;;9.15;6.13;;;1.40;99.90;;;;;;5028224;28;20109;-68
2024/03/28 05:41:33;;;;;;;9.90;5.82;;;1.40;99.90;;;;;;5030607;28;20030;-67
2024/03/28 05:43:59;;;;;;;8.82;6.10;;;1.40;99.90;;;;;;5030216;28;20029;-67
2024/03/28 05:46:25;;;;;;;9.50;5.80;;;1.40;99.90;;;;;;5022941;28;20044;-67
2024/03/28 05:48:51;;;;;;;9.13;5.82;;;1.40;99.90;;;;;;5030004;28;20120;-66
2024/03/28 05:51:17;;;;;;;9.35;6.22;;;1.40;99.90;;;;;;5029738;28;20050;-67
2024/03/28 05:53:48;;;;;;;17.80;9.30;;;1.50;99.90;;;;;;5029384;28;20029;-66
2024/03/28 05:56:14;;;;;;;12.00;7.18;;;1.50;99.90;;;;;;5029492;28;20453;-67
2024/03/28 05:58:40;;;;;;;13.10;7.10;;;1.60;99.90;;;;;;5029069;28;20033;-68
2024/03/28 06:01:05;;;;;;;10.40;6.68;;;1.70;99.90;;;;;;5029075;28;20025;-66
2024/03/28 06:03:31;;;;;;;10.85;7.55;;;1.80;99.90;;;;;;5022280;28;20026;-67
2024/03/28 06:05:56;;;;;;;8.57;6.47;;;1.90;99.90;;;;;;5015641;28;20054;-67
2024/03/28 06:08:22;;;;;;;12.02;7.30;;;2.10;99.90;;;;;;5030598;28;20036;-67
2024/03/28 06:10:48;;;;;;;10.70;7.10;;;2.30;99.90;;;;;;5028410;28;20477;-68
2024/03/28 06:13:16;;;;;;;9.68;6.72;;;2.50;99.90;;;;;;5030360;28;20444;-67
2024/03/28 06:15:42;;;;;;;7.57;5.78;;;2.60;99.90;;;;;;5023540;28;20026;-67
2024/03/28 06:18:08;;;;;;;8.48;5.65;;;2.80;99.90;;;;;;5029339;28;20036;-67
2024/03/28 06:20:34;;;;;;;5.80;4.72;;;3.00;99.90;;;;;;5027941;28;20525;-67
2024/03/28 06:23:00;;;;;;;6.55;4.80;;;3.40;99.90;;;;;;5019133;28;20022;-67
2024/03/28 06:25:25;;;;;;;7.10;4.72;;;3.80;99.90;;;;;;5029965;28;20482;-67
2024/03/28 06:27:51;;;;;;;5.78;4.50;;;4.10;99.90;;;;;;5029061;28;20429;-68
2024/03/28 06:30:25;;;;;;;5.70;4.32;;;4.30;99.90;;;;;;5025539;28;20037;-68
2024/03/28 06:32:51;;;;;;;4.75;3.97;;;4.50;99.90;;;;;;5028769;28;20042;-68
2024/03/28 06:35:17;;;;;;;7.00;3.95;;;4.60;99.90;;;;;;5031778;28;20038;-67
2024/03/28 06:37:43;;;;;;;5.95;4.10;;;4.80;99.90;;;;;;5023019;28;20032;-67
2024/03/28 06:40:10;;;;;;;4.32;3.85;;;4.80;99.90;;;;;;5032352;28;20030;-67
2024/03/28 06:42:35;;;;;;;6.43;4.50;;;4.80;99.90;;;;;;5027286;28;20034;-67
2024/03/28 06:45:01;;;;;;;6.25;4.25;;;4.90;99.90;;;;;;5026519;28;20063;-67
2024/03/28 06:47:27;;;;;;;4.32;3.70;;;4.90;99.90;;;;;;5030535;28;20036;-67
2024/03/28 06:49:52;;;;;;;5.65;3.22;;;5.00;99.90;;;;;;5032831;28;20087;-66
2024/03/28 06:52:18;;;;;;;4.28;3.60;;;5.10;99.90;;;;;;5033301;28;20080;-67
2024/03/28 06:54:43;;;;;;;4.60;3.00;;;5.20;99.90;;;;;;5029596;28;20033;-66
2024/03/28 06:57:10;;;;;;;4.07;1.95;;;5.30;99.90;;;;;;5028394;28;20036;-67
2024/03/28 06:59:36;;;;;;;2.13;1.63;;;5.30;99.90;;;;;;5025004;28;20033;-68
2024/03/28 07:02:01;;;;;;;2.25;1.23;;;5.50;99.90;;;;;;5029715;28;20041;-67
2024/03/28 07:04:27;;;;;;;2.35;1.50;;;5.50;99.90;;;;;;5030043;28;20092;-67
2024/03/28 07:06:53;;;;;;;1.85;1.27;;;5.50;99.90;;;;;;5016025;28;20250;-69
2024/03/28 07:09:19;;;;;;;1.67;1.52;;;5.40;99.90;;;;;;5032687;28;20040;-66
2024/03/28 07:11:45;;;;;;;1.65;1.23;;;5.20;99.90;;;;;;5030931;28;20030;-69
2024/03/28 07:14:12;;;;;;;4.28;1.77;;;5.10;99.90;;;;;;5033550;28;20080;-69
2024/03/28 07:16:38;;;;;;;4.18;1.92;;;5.00;99.90;;;;;;5029101;28;20360;-68
2024/03/28 07:19:04;;;;;;;3.92;1.92;;;5.00;99.90;;;;;;5025332;28;20451;-67
2024/03/28 07:21:31;;;;;;;3.47;2.38;;;4.90;99.90;;;;;;5033297;28;20029;-68
2024/03/28 07:23:56;;;;;;;3.92;2.17;;;4.80;99.90;;;;;;5032574;28;20033;-67
2024/03/28 07:26:22;;;;;;;2.85;2.20;;;4.70;99.90;;;;;;5032913;28;20033;-67
2024/03/28 07:28:47;;;;;;;2.75;2.30;;;4.70;99.90;;;;;;5030452;28;20107;-67
2024/03/28 07:31:13;;;;;;;3.38;2.17;;;4.70;99.90;;;;;;5033719;28;20030;-67
2024/03/28 07:33:39;;;;;;;2.80;2.17;;;4.70;99.90;;;;;;5031070;28;20085;-66
2024/03/28 07:36:05;;;;;;;4.28;1.98;;;4.70;99.90;;;;;;5033405;28;20029;-67
2024/03/28 07:38:31;;;;;;;3.45;2.03;;;4.80;99.90;;;;;;5029308;28;20029;-66
2024/03/28 07:40:57;;;;;;;3.88;2.20;;;4.80;99.90;;;;;;5025269;28;20025;-67
2024/03/28 07:43:22;;;;;;;2.97;2.05;;;4.90;99.90;;;;;;5033186;28;20109;-67
2024/03/28 07:45:48;;;;;;;3.25;1.60;;;5.10;99.90;;;;;;5028695;28;20124;-70
2024/03/28 07:48:13;;;;;;;2.35;1.77;;;5.20;99.90;;;;;;5033585;28;20025;-67
2024/03/28 07:50:39;;;;;;;2.45;1.90;;;5.30;99.90;;;;;;5026218;28;20033;-67
2024/03/28 07:53:05;;;;;;;3.83;1.85;;;5.50;99.90;;;;;;5048849;28;20060;-68
2024/03/28 07:55:31;;;;;;;2.95;2.03;;;5.60;99.90;;;;;;5048907;28;20116;-67
2024/03/28 07:57:57;;;;;;;3.45;2.20;;;5.80;99.90;;;;;;5031759;28;20122;-67
2024/03/28 08:00:23;;;;;;;2.50;2.30;;;6.00;99.90;;;;;;5031190;28;20041;-66
2024/03/28 08:02:49;;;;;;;5.32;2.45;;;6.00;99.90;;;;;;5037086;28;20419;-67
2024/03/28 08:05:17;;;;;;;3.05;2.05;;;6.20;99.90;;;;;;5021054;28;20057;-67
2024/03/28 08:07:44;;;;;;;3.45;2.22;;;6.20;99.90;;;;;;5046612;28;20446;-67
2024/03/28 08:10:10;;;;;;;2.33;1.85;;;6.20;99.90;;;;;;5032399;28;20548;-67
2024/03/28 08:12:39;;;;;;;2.03;1.65;;;6.30;99.90;;;;;;5026470;28;20029;-66
2024/03/28 08:15:09;;;;;;;2.25;2.03;;;6.30;99.90;;;;;;5032066;28;20049;-67
2024/03/28 08:17:37;;;;;;;3.10;2.20;;;6.40;99.90;;;;;;5042853;28;20064;-66
2024/03/28 08:20:15;;;;;;;2.33;1.90;;;6.50;99.90;;;;;;5032646;28;20052;-68
2024/03/28 08:22:41;;;;;;;2.63;1.88;;;6.70;99.90;;;;;;5019313;28;20045;-69
2024/03/28 08:25:06;;;;;;;2.65;1.60;;;6.80;99.90;;;;;;5032513;28;20065;-68
2024/03/28 08:27:32;;;;;;;1.60;1.50;;;7.00;99.90;;;;;;5032840;28;20032;-68
2024/03/28 08:29:58;;;;;;;2.45;1.73;;;7.20;99.90;;;;;;5032236;28;20029;-68
2024/03/28 08:32:23;;;;;;;2.28;1.55;;;7.40;99.90;;;;;;5030700;28;20044;-68
2024/03/28 08:34:49;;;;;;;2.20;1.38;;;7.50;99.90;;;;;;5042265;28;20072;-68
2024/03/28 08:37:14;;;;;;;3.95;1.42;;;7.60;99.90;;;;;;5037844;28;20067;-69
2024/03/28 08:39:40;;;;;;;3.40;1.60;;;7.60;99.90;;;;;;5043348;28;20418;-67
2024/03/28 08:42:06;;;;;;;2.20;1.30;;;7.60;99.90;;;;;;5032418;28;20026;-68
2024/03/28 08:44:32;;;;;;;2.05;1.40;;;7.70;99.90;;;;;;5032458;28;20087;-69
2024/03/28 08:46:58;;;;;;;1.98;1.20;;;7.80;99.90;;;;;;5036230;28;20029;-68
2024/03/28 08:49:24;;;;;;;2.65;1.20;;;7.90;99.90;;;;;;5040265;28;20021;-67
2024/03/28 08:51:50;;;;;;;2.88;1.15;;;7.90;99.90;;;;;;5024475;28;20029;-67
2024/03/28 08:54:16;;;;;;;1.65;1.35;;;7.90;99.90;;;;;;5031023;28;20396;-66
2024/03/28 08:56:42;;;;;;;1.35;1.10;;;8.00;99.90;;;;;;5030173;28;20356;-66
2024/03/28 08:59:07;;;;;;;1.20;1.10;;;8.00;99.90;;;;;;5030523;28;20051;-67
2024/03/28 09:01:34;;;;;;;2.92;1.20;;;8.10;99.90;;;;;;5030816;28;20026;-66
2024/03/28 09:04:01;;;;;;;2.70;1.40;;;8.20;99.90;;;;;;5029380;28;20124;-66
2024/03/28 09:06:27;;;;;;;1.98;0.98;;;8.30;99.90;;;;;;5027256;28;20034;-67
2024/03/28 09:08:52;;;;;;;1.25;1.15;;;8.40;99.90;;;;;;5025728;28;20040;-66
2024/03/28 09:11:18;;;;;;;1.42;1.00;;;8.50;99.90;;;;;;5020755;28;20083;-66
2024/03/28 09:13:44;;;;;;;1.67;1.17;;;8.60;99.90;;;;;;5030766;28;20033;-66
2024/03/28 09:16:09;;;;;;;1.00;0.90;;;8.70;99.90;;;;;;5030577;28;20466;-67
2024/03/28 09:18:35;;;;;;;0.60;0.60;;;8.70;99.90;;;;;;5029548;28;20501;-65
2024/03/28 09:21:01;;;;;;;1.15;0.88;;;8.90;99.90;;;;;;5024385;28;20040;-67
2024/03/28 09:23:27;;;;;;;1.40;0.68;;;9.00;99.90;;;;;;5034900;28;20037;-66
2024/03/28 09:25:52;;;;;;;1.67;0.50;;;9.00;99.90;;;;;;5029712;28;20040;-68
2024/03/28 09:28:18;;;;;;;1.00;0.55;;;8.90;99.90;;;;;;5036495;28;20060;-69
2024/03/28 09:30:44;;;;;;;0.85;0.40;;;8.90;99.90;;;;;;5037898;28;20455;-68
2024/03/28 09:33:11;;;;;;;1.30;0.47;;;8.90;99.90;;;;;;5038992;28;20036;-68
2024/03/28 09:35:36;;;;;;;2.03;0.50;;;8.80;99.90;;;;;;5036098;28;20105;-67
2024/03/28 09:38:03;;;;;;;0.68;0.55;;;8.80;99.90;;;;;;5032007;28;20116;-68
2024/03/28 09:40:30;;;;;;;0.50;0.47;;;8.80;99.90;;;;;;5031663;28;20033;-69
2024/03/28 09:42:57;;;;;;;1.38;0.30;;;8.80;99.90;;;;;;5022446;28;20485;-68
2024/03/28 09:45:27;;;;;;;0.95;0.30;;;8.70;99.90;;;;;;5025528;28;20079;-69
2024/03/28 09:47:54;;;;;;;;;;;8.70;99.90;;;;;;5030478;28;20101;-69
2024/03/28 09:50:22;;;;;;;0.57;0.40;;;8.80;99.90;;;;;;5031790;28;19971;-68
2024/03/28 09:52:50;;;;;;;1.23;0.45;;;8.90;99.90;;;;;;5030387;28;20104;-69
2024/03/28 09:55:17;;;;;;;0.93;0.40;;;9.00;99.90;;;;;;5023106;28;20025;-68
2024/03/28 09:57:43;;;;;;;1.77;0.30;;;8.90;99.90;;;;;;5029328;28;20025;-68
2024/03/28 10:00:12;;;;;;;2.17;0.35;;;9.00;99.90;;;;;;5030300;28;20028;-68
2024/03/28 10:02:40;;;;;;;0.68;0.45;;;9.10;99.90;;;;;;5027212;28;20036;-67
2024/03/28 10:05:06;;;;;;;0.30;0.30;;;9.10;99.90;;;;;;5021246;28;20076;-68
2024/03/28 10:07:32;;;;;;;1.38;0.30;;;9.20;99.90;;;;;;5028942;28;20029;-68
2024/03/28 10:09:59;;;;;;;1.05;0.30;;;9.30;99.90;;;;;;5029174;28;20084;-68
2024/03/28 10:12:24;;;;;;;0.75;0.20;;;9.40;99.90;;;;;;5023780;28;20021;-68
2024/03/28 10:14:54;;;;;;;0.32;0.20;;;9.50;99.90;;;;;;5029396;28;20029;-68
2024/03/28 10:17:20;;;;;;;2.47;0.32;;;9.50;99.90;;;;;;5029756;28;20466;-68
2024/03/28 10:20:07;;;;;;;0.20;0.20;;;9.60;99.90;;;;;;5023884;28;20076;-68
2024/03/28 10:22:42;;;;;;;4.00;0.40;;;9.80;99.90;;;;;;5029670;28;20033;-68
2024/03/28 10:25:21;;;;;;;0.10;0.10;;;9.90;99.90;;;;;;5029658;28;20495;-68
2024/03/28 10:27:47;;;;;;;1.02;0.28;;;10.20;99.90;;;;;;5029266;28;20067;-68
2024/03/28 10:30:25;;;;;;;0.93;0.22;;;10.30;99.90;;;;;;5029536;28;20065;-68
2024/03/28 10:33:04;;;;;;;2.05;0.30;;;10.50;99.90;;;;;;5029416;28;20057;-69
2024/03/28 10:35:41;;;;;;;0.98;0.40;;;10.60;99.90;;;;;;5024156;28;20455;-68
2024/03/28 10:38:08;;;;;;;0.98;0.20;;;10.60;99.90;;;;;;5029710;28;20084;-67
2024/03/28 10:40:37;;;;;;;1.15;0.20;;;10.70;99.90;;;;;;5029946;28;20036;-67
2024/03/28 10:43:06;;;;;;;0.25;0.25;;;10.90;99.90;;;;;;5029672;28;20063;-67
2024/03/28 10:45:34;;;;;;;0.20;0.13;;;11.00;99.90;;;;;;5029811;28;20548;-67
2024/03/28 10:48:01;;;;;;;2.08;0.30;;;11.10;99.90;;;;;;5028734;28;20018;-67
2024/03/28 10:50:37;;;;;;;1.52;0.20;;;11.10;99.90;;;;;;5019983;28;20029;-67
2024/03/28 10:53:25;;;;;;;1.17;0.10;;;11.10;99.90;;;;;;5026151;28;20025;-68
2024/03/28 10:55:57;;;;;;;1.10;0.20;;;11.00;99.90;;;;;;5027794;28;20474;-67
2024/03/28 10:58:25;;;;;;;2.40;0.35;;;11.10;99.90;;;;;;5033736;28;20435;-69
2024/03/28 11:00:51;;;;;;;0.93;0.22;;;11.20;99.90;;;;;;5029441;28;20045;-67
2024/03/28 11:03:18;;;;;;;0.68;0.30;;;11.30;99.90;;;;;;5028477;28;20069;-67
2024/03/28 11:05:44;;;;;;;1.10;0.10;;;11.40;99.90;;;;;;5013058;28;20534;-67
2024/03/28 11:08:11;;;;;;;1.85;0.30;;;11.40;99.90;;;;;;5029784;28;20061;-67
2024/03/28 11:10:37;;;;;;;0.40;0.30;;;11.40;99.90;;;;;;5020233;28;20241;-67
2024/03/28 11:13:04;;;;;;;1.02;0.47;;;11.40;99.90;;;;;;5038784;28;20028;-67
2024/03/28 11:15:29;;;;;;;0.60;0.20;;;11.30;99.90;;;;;;5022471;28;20030;-68
2024/03/28 11:17:55;;;;;;;2.72;0.43;;;11.20;99.90;;;;;;5023572;28;20153;-68
2024/03/28 11:20:21;;;;;;;0.82;0.30;;;11.40;99.90;;;;;;5015690;28;20091;-68
2024/03/28 11:22:47;;;;;;;0.82;0.20;;;11.50;99.90;;;;;;5031692;28;20036;-67
2024/03/28 11:25:46;;;;;;;1.13;0.30;;;11.60;99.90;;;;;;5032995;28;20120;-67
2024/03/28 11:28:13;;;;;;;1.75;0.20;;;11.80;99.90;;;;;;4985530;28;20604;-67
2024/03/28 11:30:51;;;;;;;1.80;0.40;;;11.80;99.90;;;;;;5030112;28;20028;-67
2024/03/28 11:33:27;;;;;;;1.42;0.40;;;;;;;;;;5025047;28;20041;-68
2024/03/28 11:35:58;;;;;;;0.85;0.20;;;12.10;99.90;;;;;;5032245;28;20113;-68
2024/03/28 11:38:24;;;;;;;0.60;0.40;;;12.20;99.80;;;;;;5033186;28;20029;-68
2024/03/28 11:40:50;;;;;;;0.13;0.13;;;12.20;99.50;;;;;;5031888;28;20477;-68
2024/03/28 11:43:18;;;;;;;0.65;0.10;;;12.20;98.60;;;;;;5027343;28;20728;-67
2024/03/28 11:46:06;;;;;;;0.40;0.10;;;12.10;98.70;;;;;;5031920;28;20093;-68
2024/03/28 11:48:36;;;;;;;0.75;0.30;;;12.00;98.60;;;;;;5032846;28;20025;-67
2024/03/28 11:51:03;;;;;;;0.70;0.10;;;11.90;98.80;;;;;;5029123;28;20578;-70
2024/03/28 11:53:29;;;;;;;0.63;0.20;;;11.80;98.70;;;;;;5021601;28;20037;-68
2024/03/28 11:55:55;;;;;;;0.20;0.20;;;11.80;98.70;;;;;;5031792;28;20536;-68
2024/03/28 11:58:24;;;;;;;0.10;0.10;;;11.90;98.80;;;;;;5031278;28;20053;-70
2024/03/28 12:00:56;;;;;;;0.10;0.10;;;12.10;98.40;;;;;;5024333;28;20017;-77
2024/03/28 12:03:22;;;;;;;0.88;0.15;;;12.30;97.70;;;;;;5032452;28;20045;-68
2024/03/28 12:05:49;;;;;;;1.95;0.22;;;;;;;;;;5016079;28;20046;-73
2024/03/28 12:08:14;;;;;;;0.10;0.10;;;13.40;95.70;;;;;;5037786;28;20172;-72
2024/03/28 12:10:40;;;;;;;0.80;0.20;;;13.80;95.60;;;;;;5032697;28;20037;-72
2024/03/28 12:13:09;;;;;;;0.30;0.22;;;14.10;94.70;;;;;;5032955;28;20036;-72
2024/03/28 12:15:37;;;;;;;1.55;0.20;;;14.50;94.00;;;;;;5032212;28;20029;-72
2024/03/28 12:18:03;;;;;;;1.15;0.22;;;14.90;93.20;;;;;;5023976;28;20359;-70
2024/03/28 12:20:30;;;;;;;0.98;0.20;;;15.00;92.30;;;;;;5030189;28;20496;-68
2024/03/28 12:22:58;;;;;;;0.22;0.22;;;15.00;91.70;;;;;;5020550;28;20021;-68
2024/03/28 12:25:24;;;;;;;0.43;0.20;;;15.10;91.60;;;;;;5025087;28;20091;-68
2024/03/28 12:27:57;;;;;;;0.88;0.43;;;15.30;91.30;;;;;;5022331;28;20034;-68
2024/03/28 12:30:24;;;;;;;0.55;0.30;;;15.80;90.70;;;;;;5030498;28;20044;-68
2024/03/28 12:33:01;;;;;;;0.40;0.30;;;16.20;90.00;;;;;;5029602;28;20395;-68
2024/03/28 12:35:27;;;;;;;1.05;0.15;;;16.20;89.10;;;;;;5029195;28;20044;-68
2024/03/28 12:37:53;;;;;;;0.60;0.25;;;16.30;88.20;;;;;;5030923;28;20040;-69
2024/03/28 12:40:20;;;;;;;1.67;0.28;;;16.40;88.80;;;;;;5031949;28;20029;-68
2024/03/28 12:42:46;;;;;;;0.80;0.20;;;16.20;88.50;;;;;;5031124;28;20025;-68
2024/03/28 12:45:23;;;;;;;1.08;0.10;;;16.40;89.20;;;;;;5032217;28;20080;-69
2024/03/28 12:47:50;;;;;;;0.32;0.30;;;16.30;88.60;;;;;;5030777;28;20052;-68
2024/03/28 12:50:19;;;;;;;0.43;0.20;;;16.10;88.20;;;;;;5031007;28;20038;-68
2024/03/28 12:52:49;;;;;;;0.30;0.30;;;15.90;86.50;;;;;;5025535;28;20378;-68
2024/03/28 12:55:15;;;;;;;1.17;0.30;;;16.00;85.10;;;;;;5031807;28;20116;-68
2024/03/28 12:57:41;;;;;;;0.45;0.10;;;16.50;82.70;;;;;;5030234;28;20170;-68
2024/03/28 13:00:10;;;;;;;1.00;0.10;;;16.90;81.90;;;;;;5032024;28;20231;-68
2024/03/28 13:02:36;;;;;;;0.77;0.20;;;16.80;80.50;;;;;;5027740;28;20033;-68